Time;durP1;ratioP1;P1;durP2;ratioP2;P2;SDS_P1;SDS_P2;PMS_P1;PMS_P2;Temp;Humidity;BMP_temperature;BMP_pressure;BME280_temperature;BME280_humidity;BME280_pressure;Samples;Min_cycle;Max_cycle;Signal;HPM_P1;HPM_P2
2020/12/21 00:01:23;;;;;;;21.77;11.80;;;4.00;99.90;;;;;;5071876;28;20147;-75
2020/12/21 00:03:49;;;;;;;20.30;11.05;;;4.10;99.90;;;;;;5070444;28;20537;-75
2020/12/21 00:06:15;;;;;;;20.52;10.60;;;4.00;99.90;;;;;;5070708;28;20028;-76
2020/12/21 00:08:41;;;;;;;18.17;9.80;;;4.00;99.90;;;;;;5071454;28;20032;-76
2020/12/21 00:11:07;;;;;;;18.15;10.07;;;3.90;99.90;;;;;;5071279;28;20094;-75
2020/12/21 00:13:32;;;;;;;17.98;9.98;;;3.90;99.90;;;;;;5070016;28;20513;-75
2020/12/21 00:15:58;;;;;;;19.83;10.65;;;3.90;99.90;;;;;;5070996;28;20482;-75
2020/12/21 00:18:23;;;;;;;18.77;10.05;;;3.90;99.90;;;;;;5069590;28;20482;-75
2020/12/21 00:20:49;;;;;;;19.98;10.10;;;4.00;99.90;;;;;;5071249;28;20062;-75
2020/12/21 00:23:15;;;;;;;19.30;10.68;;;4.00;99.90;;;;;;5069948;28;20060;-75
2020/12/21 00:25:41;;;;;;;17.48;10.43;;;4.00;99.90;;;;;;5071115;28;20036;-75
2020/12/21 00:28:06;;;;;;;19.25;10.73;;;4.00;99.90;;;;;;5070494;28;20101;-75
2020/12/21 00:30:32;;;;;;;18.25;10.18;;;4.00;99.90;;;;;;5070071;28;20484;-76
2020/12/21 00:32:57;;;;;;;18.95;10.65;;;3.90;99.90;;;;;;5069744;28;20021;-75
2020/12/21 00:35:23;;;;;;;17.77;10.18;;;3.90;99.90;;;;;;5069404;28;20028;-75
2020/12/21 00:37:49;;;;;;;16.50;9.50;;;3.90;99.90;;;;;;5068876;28;20367;-75
2020/12/21 00:40:14;;;;;;;16.40;8.93;;;3.90;99.90;;;;;;5069661;28;20356;-75
2020/12/21 00:42:40;;;;;;;17.38;8.90;;;3.90;99.90;;;;;;5069922;28;20086;-75
2020/12/21 00:45:05;;;;;;;15.18;8.65;;;3.80;99.90;;;;;;5070298;28;20115;-75
2020/12/21 00:47:34;;;;;;;14.70;8.57;;;3.70;99.90;;;;;;5069686;28;20029;-75
2020/12/21 00:49:59;;;;;;;15.48;8.73;;;3.70;99.90;;;;;;5069558;28;20124;-75
2020/12/21 00:52:25;;;;;;;15.07;8.38;;;3.60;99.90;;;;;;5070688;28;20569;-75
2020/12/21 00:54:51;;;;;;;18.05;9.13;;;3.60;99.90;;;;;;5070590;28;20025;-75
2020/12/21 00:57:16;;;;;;;20.10;10.98;;;3.60;99.90;;;;;;5070090;28;20021;-75
2020/12/21 00:59:42;;;;;;;16.05;9.25;;;3.70;99.90;;;;;;5070563;28;20422;-75
2020/12/21 01:02:07;;;;;;;15.98;9.15;;;3.80;99.90;;;;;;5070825;28;20025;-75
2020/12/21 01:04:33;;;;;;;18.88;9.77;;;3.80;99.90;;;;;;5070610;28;20028;-75
2020/12/21 01:06:59;;;;;;;14.27;7.95;;;3.90;99.90;;;;;;5071237;28;20058;-75
2020/12/21 01:09:24;;;;;;;16.63;9.20;;;3.80;99.90;;;;;;5074906;28;20059;-76
2020/12/21 01:11:52;;;;;;;15.32;8.35;;;3.70;99.90;;;;;;5073594;28;20463;-75
2020/12/21 01:14:18;;;;;;;15.57;8.23;;;3.60;99.90;;;;;;5074671;28;20483;-75
2020/12/21 01:16:43;;;;;;;13.25;7.88;;;3.50;99.90;;;;;;5074174;28;20052;-75
2020/12/21 01:19:09;;;;;;;12.60;7.63;;;3.30;99.90;;;;;;5073248;28;20475;-75
2020/12/21 01:21:34;;;;;;;15.63;7.97;;;3.20;99.90;;;;;;5067788;28;20025;-75
2020/12/21 01:24:00;;;;;;;14.48;7.63;;;3.10;99.90;;;;;;5059340;28;20025;-75
2020/12/21 01:26:27;;;;;;;13.90;7.60;;;3.10;99.90;;;;;;5064733;28;20055;-75
2020/12/21 01:28:53;;;;;;;15.38;7.78;;;3.20;99.90;;;;;;5070325;28;20028;-75
2020/12/21 01:31:19;;;;;;;15.15;7.80;;;3.20;99.90;;;;;;5058032;28;20389;-75
2020/12/21 01:33:46;;;;;;;13.32;7.50;;;3.10;99.90;;;;;;5058411;28;20021;-75
2020/12/21 01:36:12;;;;;;;17.65;8.80;;;3.00;99.90;;;;;;5052495;28;20057;-75
2020/12/21 01:38:38;;;;;;;15.45;8.32;;;2.90;99.90;;;;;;5053080;28;20031;-75
2020/12/21 01:41:04;;;;;;;18.42;9.95;;;3.00;99.90;;;;;;5052902;28;20028;-75
2020/12/21 01:43:29;;;;;;;19.35;10.82;;;3.00;99.90;;;;;;5054148;28;20035;-75
2020/12/21 01:45:55;;;;;;;16.05;8.85;;;2.90;99.90;;;;;;5052600;28;20072;-75
2020/12/21 01:48:20;;;;;;;18.65;9.77;;;2.80;99.90;;;;;;5062152;28;20490;-75
2020/12/21 01:50:46;;;;;;;17.65;9.73;;;2.90;99.90;;;;;;5072752;28;20074;-75
2020/12/21 01:53:12;;;;;;;16.38;8.82;;;3.00;99.90;;;;;;5072547;28;20074;-75
2020/12/21 01:55:40;;;;;;;17.10;8.73;;;2.80;99.90;;;;;;5073622;28;20028;-75
2020/12/21 01:58:06;;;;;;;18.15;8.88;;;2.50;99.90;;;;;;5073013;28;20112;-75
2020/12/21 02:00:32;;;;;;;17.10;9.30;;;2.30;99.90;;;;;;5072388;28;20025;-75
2020/12/21 02:02:58;;;;;;;16.80;9.27;;;2.30;99.90;;;;;;5073673;28;20372;-75
2020/12/21 02:05:23;;;;;;;17.40;9.05;;;2.20;99.90;;;;;;5072538;28;20482;-75
2020/12/21 02:07:49;;;;;;;16.20;8.43;;;2.20;99.90;;;;;;5071695;28;20055;-75
2020/12/21 02:10:15;;;;;;;14.45;8.30;;;2.20;99.90;;;;;;5072134;28;20080;-75
2020/12/21 02:12:40;;;;;;;17.73;9.30;;;2.00;99.90;;;;;;5072260;28;20020;-75
2020/12/21 02:15:06;;;;;;;17.75;10.32;;;2.00;99.90;;;;;;5073418;28;20470;-75
2020/12/21 02:17:32;;;;;;;16.35;8.30;;;2.30;99.90;;;;;;5070915;28;20085;-75
2020/12/21 02:19:57;;;;;;;16.67;8.63;;;2.30;99.90;;;;;;5073344;28;20037;-75
2020/12/21 02:22:26;;;;;;;16.88;8.18;;;2.10;99.90;;;;;;5072059;28;20032;-75
2020/12/21 02:24:51;;;;;;;18.98;9.02;;;2.00;99.90;;;;;;5071904;28;20029;-75
2020/12/21 02:27:17;;;;;;;14.18;7.68;;;2.10;99.90;;;;;;5071355;28;20516;-75
2020/12/21 02:29:42;;;;;;;14.32;8.13;;;2.00;99.90;;;;;;5071876;28;20203;-75
2020/12/21 02:32:08;;;;;;;15.20;7.68;;;1.90;99.90;;;;;;5073111;28;20032;-75
2020/12/21 02:34:33;;;;;;;17.73;8.75;;;1.80;99.90;;;;;;5071719;28;20032;-75
2020/12/21 02:36:59;;;;;;;15.02;7.85;;;1.90;99.90;;;;;;5072681;28;20108;-75
2020/12/21 02:39:25;;;;;;;15.65;8.20;;;2.00;99.90;;;;;;5072056;28;20024;-75
2020/12/21 02:41:51;;;;;;;15.25;8.32;;;1.90;99.90;;;;;;5071673;28;20029;-75
2020/12/21 02:44:17;;;;;;;15.90;8.52;;;1.70;99.90;;;;;;5071591;28;20064;-75
2020/12/21 02:46:43;;;;;;;17.70;8.77;;;1.70;99.90;;;;;;5070708;28;20528;-75
2020/12/21 02:49:10;;;;;;;16.85;8.05;;;1.80;99.90;;;;;;5071533;28;20386;-75
2020/12/21 02:51:35;;;;;;;14.40;7.50;;;1.70;99.90;;;;;;5072777;28;20024;-75
2020/12/21 02:54:01;;;;;;;14.18;7.20;;;1.50;99.90;;;;;;5071498;28;20564;-76
2020/12/21 02:56:26;;;;;;;14.18;7.78;;;1.60;99.90;;;;;;5070777;28;20028;-75
2020/12/21 02:58:52;;;;;;;15.10;7.72;;;1.40;99.90;;;;;;5071410;28;20027;-75
2020/12/21 03:01:17;;;;;;;15.90;7.78;;;1.40;99.90;;;;;;5072549;28;20566;-74
2020/12/21 03:03:43;;;;;;;13.80;7.38;;;1.50;99.90;;;;;;5071330;28;20127;-74
2020/12/21 03:06:08;;;;;;;15.73;8.38;;;1.30;99.90;;;;;;5070792;28;20020;-76
2020/12/21 03:08:34;;;;;;;16.48;7.68;;;1.20;99.90;;;;;;5071501;28;20475;-75
2020/12/21 03:10:59;;;;;;;13.95;7.22;;;1.00;99.90;;;;;;5069075;28;20021;-76
2020/12/21 03:13:25;;;;;;;14.90;7.32;;;1.30;99.90;;;;;;5072364;28;20699;-75
2020/12/21 03:15:50;;;;;;;21.40;7.53;;;1.40;99.90;;;;;;5072206;28;20367;-75
2020/12/21 03:18:16;;;;;;;23.35;9.50;;;1.60;99.90;;;;;;5071561;28;20103;-75
2020/12/21 03:20:41;;;;;;;28.38;7.75;;;1.40;99.90;;;;;;5072258;28;20074;-75
2020/12/21 03:23:07;;;;;;;23.15;7.25;;;1.30;99.90;;;;;;5070853;28;20391;-75
2020/12/21 03:25:32;;;;;;;22.80;8.30;;;1.20;99.90;;;;;;5071941;28;20086;-75
2020/12/21 03:27:58;;;;;;;29.45;10.00;;;1.10;99.90;;;;;;5070139;28;20079;-75
2020/12/21 03:30:24;;;;;;;18.70;8.18;;;1.20;99.90;;;;;;5069885;28;20031;-75
2020/12/21 03:32:50;;;;;;;15.35;7.65;;;1.40;99.90;;;;;;5072027;28;20509;-75
2020/12/21 03:35:15;;;;;;;12.98;7.00;;;1.30;99.90;;;;;;5071907;28;20047;-75
2020/12/21 03:37:41;;;;;;;14.85;7.35;;;1.20;99.90;;;;;;5071232;28;20364;-75
2020/12/21 03:40:07;;;;;;;13.60;7.10;;;1.20;99.90;;;;;;5071778;28;20025;-74
2020/12/21 03:42:34;;;;;;;15.10;7.30;;;1.00;99.90;;;;;;5070389;28;20115;-74
2020/12/21 03:44:59;;;;;;;16.50;6.88;;;0.90;99.90;;;;;;5071468;28;20100;-75
2020/12/21 03:47:25;;;;;;;21.17;8.15;;;1.00;99.90;;;;;;5071041;28;20413;-75
2020/12/21 03:49:51;;;;;;;16.60;7.57;;;0.90;99.90;;;;;;5071590;28;20390;-75
2020/12/21 03:52:16;;;;;;;14.68;7.57;;;0.90;99.90;;;;;;5070558;28;20082;-75
2020/12/21 03:54:42;;;;;;;12.68;6.57;;;0.90;99.90;;;;;;5071484;28;20062;-74
2020/12/21 03:57:08;;;;;;;14.70;6.28;;;1.00;99.90;;;;;;5070897;28;20039;-75
2020/12/21 03:59:33;;;;;;;12.75;7.40;;;1.20;99.90;;;;;;5071373;28;20032;-74
2020/12/21 04:01:59;;;;;;;14.35;6.70;;;1.10;99.90;;;;;;5070165;28;20034;-75
2020/12/21 04:04:24;;;;;;;12.45;6.28;;;1.00;99.90;;;;;;5071322;28;20029;-75
2020/12/21 04:06:51;;;;;;;12.75;6.03;;;0.80;99.90;;;;;;5069383;28;20372;-75
2020/12/21 04:09:17;;;;;;;12.27;6.30;;;0.80;99.90;;;;;;5070129;28;20020;-74
2020/12/21 04:11:42;;;;;;;14.52;7.00;;;0.80;99.90;;;;;;5071289;28;20032;-75
2020/12/21 04:14:08;;;;;;;13.82;6.97;;;0.70;99.90;;;;;;5069856;28;20116;-75
2020/12/21 04:16:33;;;;;;;12.45;5.88;;;0.80;99.90;;;;;;5069261;28;20482;-75
2020/12/21 04:18:59;;;;;;;15.32;6.68;;;0.70;99.90;;;;;;5069916;28;20031;-75
2020/12/21 04:21:24;;;;;;;13.50;6.80;;;0.70;99.90;;;;;;5069843;28;20024;-75
2020/12/21 04:23:50;;;;;;;13.68;6.20;;;0.60;99.90;;;;;;5069909;28;20066;-75
2020/12/21 04:26:15;;;;;;;11.25;5.55;;;0.60;99.90;;;;;;5070320;28;20038;-75
2020/12/21 04:28:41;;;;;;;11.43;5.32;;;0.50;99.90;;;;;;5069776;28;20483;-75
2020/12/21 04:31:07;;;;;;;11.30;5.85;;;0.50;99.90;;;;;;5071082;28;20047;-75
2020/12/21 04:33:33;;;;;;;12.52;6.20;;;0.40;99.90;;;;;;5071146;28;20154;-75
2020/12/21 04:35:59;;;;;;;11.68;5.38;;;0.40;99.90;;;;;;5069099;28;20028;-75
2020/12/21 04:38:25;;;;;;;15.13;6.60;;;0.40;99.90;;;;;;5069534;28;20074;-75
2020/12/21 04:40:54;;;;;;;12.60;5.93;;;0.40;99.90;;;;;;5069503;28;20077;-75
2020/12/21 04:43:21;;;;;;;12.87;6.67;;;0.30;99.90;;;;;;5069561;28;20102;-75
2020/12/21 04:45:49;;;;;;;12.25;6.82;;;0.40;99.90;;;;;;5069378;28;20289;-75
2020/12/21 04:48:16;;;;;;;12.50;6.40;;;0.50;99.90;;;;;;5069068;28;20021;-75
2020/12/21 04:50:42;;;;;;;13.60;6.93;;;0.40;99.90;;;;;;5069722;28;20037;-75
2020/12/21 04:53:09;;;;;;;10.73;5.88;;;0.20;99.90;;;;;;5070959;28;20017;-75
2020/12/21 04:55:35;;;;;;;17.23;7.63;;;0.10;99.90;;;;;;5069675;28;20033;-75
2020/12/21 04:58:04;;;;;;;13.80;6.60;;;0.00;99.90;;;;;;5070478;28;20032;-75
2020/12/21 05:00:31;;;;;;;17.77;7.63;;;0.00;99.90;;;;;;5071114;28;20534;-75
2020/12/21 05:02:57;;;;;;;14.43;6.78;;;-0.10;99.90;;;;;;5071072;28;20112;-75
2020/12/21 05:05:34;;;;;;;16.67;7.38;;;-0.20;99.90;;;;;;5070827;28;20551;-75
2020/12/21 05:08:22;;;;;;;12.93;7.10;;;-0.20;99.90;;;;;;5070216;28;20382;-75
2020/12/21 05:11:03;;;;;;;15.98;8.52;;;-0.20;99.90;;;;;;5069518;28;20028;-75
2020/12/21 05:13:31;;;;;;;16.27;7.28;;;0.00;99.90;;;;;;5070687;28;20051;-75
2020/12/21 05:15:57;;;;;;;15.65;7.85;;;0.00;99.90;;;;;;5070602;28;20035;-75
2020/12/21 05:18:28;;;;;;;16.10;8.25;;;-0.10;99.90;;;;;;5070183;28;20082;-74
2020/12/21 05:21:00;;;;;;;14.68;7.60;;;0.10;99.90;;;;;;5069261;28;20025;-74
2020/12/21 05:23:26;;;;;;;16.98;7.97;;;-0.10;99.90;;;;;;5069322;28;20035;-75
2020/12/21 05:26:06;;;;;;;14.63;6.90;;;-0.20;99.90;;;;;;5070411;28;20074;-75
2020/12/21 05:28:33;;;;;;;;;;;-0.10;99.90;;;;;;5070764;28;20029;-75
2020/12/21 05:31:01;;;;;;;15.18;6.95;;;-0.10;99.90;;;;;;5070222;28;20101;-75
2020/12/21 05:33:27;;;;;;;14.80;7.28;;;-0.20;99.90;;;;;;5070371;28;20054;-75
2020/12/21 05:35:56;;;;;;;15.90;8.50;;;0.10;99.90;;;;;;5070397;28;20562;-75
2020/12/21 05:38:28;;;;;;;14.10;7.70;;;0.10;99.90;;;;;;5068525;28;20174;-75
2020/12/21 05:41:07;;;;;;;17.25;8.98;;;0.00;99.90;;;;;;5069100;28;20433;-75
2020/12/21 05:43:33;;;;;;;22.45;13.05;;;0.10;99.90;;;;;;5070048;28;20032;-75
2020/12/21 05:46:06;;;;;;;18.45;11.73;;;0.00;99.90;;;;;;5069763;28;20371;-75
2020/12/21 05:48:37;;;;;;;17.02;9.52;;;0.00;99.90;;;;;;5069016;28;20020;-75
2020/12/21 05:51:05;;;;;;;12.20;6.90;;;0.00;99.90;;;;;;5070339;28;20021;-74
2020/12/21 05:53:36;;;;;;;14.93;8.20;;;0.20;99.90;;;;;;5070829;28;20025;-75
2020/12/21 05:56:03;;;;;;;14.93;7.68;;;0.10;99.90;;;;;;5073293;28;20024;-74
2020/12/21 05:58:37;;;;;;;15.73;9.25;;;-0.10;99.90;;;;;;5072355;28;20036;-74
2020/12/21 06:01:14;;;;;;;16.65;8.10;;;-0.20;99.90;;;;;;5072481;28;20537;-75
2020/12/21 06:04:01;;;;;;;13.73;8.07;;;-0.20;99.90;;;;;;5073713;28;20029;-73
2020/12/21 06:06:29;;;;;;;14.32;7.68;;;0.00;99.90;;;;;;5072632;28;20394;-73
2020/12/21 06:08:56;;;;;;;15.25;8.52;;;0.10;99.90;;;;;;5073554;28;20020;-73
2020/12/21 06:11:30;;;;;;;14.20;8.07;;;0.00;99.90;;;;;;5073536;28;20467;-73
2020/12/21 06:14:05;;;;;;;12.80;7.25;;;-0.20;99.90;;;;;;5071939;28;20033;-73
2020/12/21 06:16:35;;;;;;;16.45;7.80;;;-0.30;99.90;;;;;;5072799;28;20028;-73
2020/12/21 06:19:00;;;;;;;15.30;7.82;;;-0.30;99.90;;;;;;5072121;28;20078;-73
2020/12/21 06:21:27;;;;;;;16.70;7.80;;;-0.30;99.90;;;;;;5070593;28;20056;-72
2020/12/21 06:23:53;;;;;;;15.43;8.18;;;-0.20;99.90;;;;;;5073312;28;20070;-73
2020/12/21 06:26:19;;;;;;;19.73;9.70;;;-0.10;99.90;;;;;;5072479;28;20032;-73
2020/12/21 06:28:44;;;;;;;15.82;9.75;;;-0.20;99.90;;;;;;5071923;28;20021;-72
2020/12/21 06:31:19;;;;;;;26.05;20.85;;;-0.20;99.90;;;;;;5071805;28;20020;-73
2020/12/21 06:33:47;;;;;;;24.27;15.38;;;0.00;99.90;;;;;;5073167;28;20067;-74
2020/12/21 06:36:13;;;;;;;41.47;25.50;;;-0.10;99.90;;;;;;5071053;28;20052;-73
2020/12/21 06:38:49;;;;;;;39.05;22.35;;;-0.10;99.90;;;;;;5073130;28;20031;-73
2020/12/21 06:41:23;;;;;;;18.23;11.02;;;-0.10;99.90;;;;;;5072935;28;20025;-73
2020/12/21 06:44:01;;;;;;;31.42;16.90;;;-0.10;99.90;;;;;;5072951;28;20030;-73
2020/12/21 06:46:27;;;;;;;18.52;10.57;;;0.00;99.90;;;;;;5072029;28;20042;-74
2020/12/21 06:49:19;;;;;;;35.40;20.98;;;-0.20;99.90;;;;;;5071464;28;20524;-74
2020/12/21 06:51:46;;;;;;;43.72;24.83;;;-0.30;99.90;;;;;;5070408;28;20498;-74
2020/12/21 06:54:13;;;;;;;25.52;14.88;;;-0.40;99.90;;;;;;5071256;28;20021;-74
2020/12/21 06:56:44;;;;;;;25.10;13.20;;;-0.40;99.90;;;;;;5072123;28;20387;-74
2020/12/21 06:59:17;;;;;;;25.92;14.15;;;-0.40;99.90;;;;;;5072691;28;20029;-74
2020/12/21 07:01:45;;;;;;;17.75;8.88;;;-0.40;99.90;;;;;;5071356;28;20082;-74
2020/12/21 07:04:24;;;;;;;17.27;8.43;;;-0.40;99.90;;;;;;5072680;28;20032;-74
2020/12/21 07:06:51;;;;;;;22.67;9.70;;;-0.50;99.90;;;;;;5071963;28;20021;-74
2020/12/21 07:09:25;;;;;;;49.92;23.20;;;-0.70;99.90;;;;;;5071088;28;20074;-74
2020/12/21 07:12:04;;;;;;;23.33;13.43;;;-0.60;99.90;;;;;;5071334;28;20024;-74
2020/12/21 07:14:34;;;;;;;14.70;8.18;;;-0.40;99.90;;;;;;5072417;28;20016;-74
2020/12/21 07:17:04;;;;;;;22.75;11.60;;;-0.40;99.90;;;;;;5070581;28;20115;-74
2020/12/21 07:19:31;;;;;;;20.27;9.98;;;-0.20;99.90;;;;;;5071113;28;20086;-75
2020/12/21 07:21:57;;;;;;;16.70;8.77;;;-0.10;99.90;;;;;;5071127;28;20051;-74
2020/12/21 07:24:23;;;;;;;25.15;13.05;;;0.00;99.90;;;;;;5072394;28;20482;-74
2020/12/21 07:26:51;;;;;;;29.45;15.43;;;-0.10;99.90;;;;;;5070297;28;20036;-75
2020/12/21 07:29:17;;;;;;;29.05;14.30;;;-0.10;99.90;;;;;;5072147;28;20028;-75
2020/12/21 07:31:43;;;;;;;24.50;13.55;;;-0.20;99.90;;;;;;5072136;28;20032;-75
2020/12/21 07:34:08;;;;;;;22.30;12.90;;;-0.20;99.90;;;;;;5072042;28;20100;-74
2020/12/21 07:36:40;;;;;;;24.10;12.75;;;-0.20;99.90;;;;;;5071241;28;20573;-75
2020/12/21 07:39:14;;;;;;;57.70;25.48;;;-0.30;99.90;;;;;;5070655;28;20039;-75
2020/12/21 07:41:43;;;;;;;40.25;20.00;;;-0.10;99.90;;;;;;5071620;28;20139;-75
2020/12/21 07:44:19;;;;;;;21.90;12.30;;;0.00;99.90;;;;;;5071597;28;20020;-75
2020/12/21 07:46:56;;;;;;;21.45;10.70;;;-0.20;99.90;;;;;;5085026;22;20060;-73
2020/12/21 07:49:23;;;;;;;21.60;12.13;;;-0.30;99.90;;;;;;5031737;28;20029;-72
2020/12/21 07:51:49;;;;;;;34.80;18.85;;;-0.30;99.90;;;;;;5031623;28;20025;-73
2020/12/21 07:54:15;;;;;;;24.35;12.30;;;-0.20;99.90;;;;;;5031470;28;20387;-72
2020/12/21 07:56:41;;;;;;;25.38;14.25;;;0.00;99.90;;;;;;5046242;28;20026;-70
2020/12/21 07:59:15;;;;;;;19.00;11.00;;;0.20;99.90;;;;;;5013760;28;20398;-72
2020/12/21 08:01:42;;;;;;;23.65;13.50;;;0.40;99.90;;;;;;5013416;28;20029;-72
2020/12/21 08:04:15;;;;;;;19.63;11.68;;;0.60;99.90;;;;;;5013636;28;20026;-72
2020/12/21 08:06:41;;;;;;;31.08;18.33;;;0.60;99.90;;;;;;5028875;28;20491;-72
2020/12/21 08:09:07;;;;;;;30.48;20.45;;;0.50;99.90;;;;;;5013364;28;20052;-72
2020/12/21 08:11:34;;;;;;;24.33;15.77;;;0.30;99.90;;;;;;5013385;28;20032;-73
2020/12/21 08:14:00;;;;;;;27.55;15.05;;;0.20;99.90;;;;;;5031226;28;20021;-72
2020/12/21 08:16:26;;;;;;;23.42;14.45;;;0.20;99.90;;;;;;5012303;28;20033;-72
2020/12/21 08:18:52;;;;;;;24.25;14.63;;;0.10;99.90;;;;;;5013357;28;20028;-72
2020/12/21 08:21:24;;;;;;;21.17;12.10;;;0.10;99.90;;;;;;5030798;28;20040;-70
2020/12/21 08:23:55;;;;;;;20.70;11.93;;;0.20;99.90;;;;;;5030886;28;20424;-72
2020/12/21 08:26:21;;;;;;;14.35;8.93;;;0.50;99.90;;;;;;5009667;28;20401;-72
2020/12/21 08:28:50;;;;;;;15.68;8.75;;;0.50;99.90;;;;;;5030565;28;20057;-71
2020/12/21 08:31:21;;;;;;;22.42;12.15;;;0.50;99.90;;;;;;5013062;28;20078;-71
2020/12/21 08:34:05;;;;;;;17.65;9.40;;;0.40;99.90;;;;;;5012935;28;20056;-72
2020/12/21 08:36:38;;;;;;;18.75;10.20;;;0.40;99.90;;;;;;5012287;28;20022;-70
2020/12/21 08:39:09;;;;;;;17.40;9.93;;;0.40;99.90;;;;;;5013157;28;20032;-72
2020/12/21 08:41:37;;;;;;;18.55;11.15;;;0.30;99.90;;;;;;5013212;28;20181;-73
2020/12/21 08:44:07;;;;;;;19.05;10.50;;;0.30;99.90;;;;;;5030429;28;20500;-73
2020/12/21 08:46:33;;;;;;;20.08;10.30;;;0.40;99.90;;;;;;5012273;28;20029;-73
2020/12/21 08:48:59;;;;;;;17.88;11.35;;;0.60;99.90;;;;;;5030688;28;20029;-73
2020/12/21 08:51:24;;;;;;;18.65;11.40;;;0.60;99.90;;;;;;5030565;28;20025;-72
2020/12/21 08:53:50;;;;;;;21.42;12.52;;;0.60;99.90;;;;;;5030693;28;20057;-72
2020/12/21 08:56:16;;;;;;;20.00;12.32;;;0.50;99.90;;;;;;5012146;28;20052;-70
2020/12/21 08:58:41;;;;;;;34.42;20.35;;;0.60;99.90;;;;;;5030162;28;20476;-69
2020/12/21 09:01:08;;;;;;;27.15;16.50;;;0.70;99.90;;;;;;5012803;28;20111;-68
2020/12/21 09:03:34;;;;;;;26.98;18.00;;;0.90;99.90;;;;;;5030390;28;20100;-69
2020/12/21 09:06:00;;;;;;;24.30;15.90;;;1.00;99.90;;;;;;5028025;28;20021;-68
2020/12/21 09:08:27;;;;;;;31.65;22.63;;;0.80;99.90;;;;;;5012825;28;20052;-69
2020/12/21 09:10:52;;;;;;;63.00;40.53;;;0.70;99.90;;;;;;5030350;28;20388;-69
2020/12/21 09:13:18;;;;;;;37.05;22.98;;;0.80;99.90;;;;;;5030394;28;20030;-67
2020/12/21 09:15:43;;;;;;;23.00;17.33;;;1.00;99.90;;;;;;5030634;28;20750;-71
2020/12/21 09:18:09;;;;;;;42.70;26.83;;;1.10;99.90;;;;;;5029783;28;20135;-71
2020/12/21 09:20:35;;;;;;;24.95;17.38;;;1.10;99.90;;;;;;5013074;28;20021;-71
2020/12/21 09:23:00;;;;;;;25.00;16.88;;;1.00;99.90;;;;;;5012757;28;20030;-70
2020/12/21 09:25:26;;;;;;;29.17;17.05;;;0.90;99.90;;;;;;5012722;28;20029;-71
2020/12/21 09:27:51;;;;;;;38.53;22.08;;;0.80;99.90;;;;;;5030502;28;20033;-71
2020/12/21 09:30:17;;;;;;;30.52;17.27;;;0.80;99.90;;;;;;5034310;28;20091;-71
2020/12/21 09:32:42;;;;;;;46.00;21.60;;;1.00;99.90;;;;;;5034191;28;20033;-71
2020/12/21 09:35:08;;;;;;;21.10;14.30;;;1.10;99.90;;;;;;5034109;28;20446;-72
2020/12/21 09:37:33;;;;;;;22.25;13.18;;;1.00;99.90;;;;;;5033239;28;20060;-71
2020/12/21 09:39:59;;;;;;;20.98;12.98;;;1.00;99.90;;;;;;5034062;28;20029;-71
2020/12/21 09:42:24;;;;;;;25.50;14.85;;;1.00;99.90;;;;;;5033900;28;20022;-71
2020/12/21 09:44:50;;;;;;;25.50;14.82;;;0.90;99.90;;;;;;5033932;28;20030;-72
2020/12/21 09:47:17;;;;;;;29.23;17.92;;;0.90;99.90;;;;;;5032976;28;20037;-71
2020/12/21 09:49:43;;;;;;;22.10;12.80;;;1.10;99.90;;;;;;5033691;28;20048;-71
2020/12/21 09:52:09;;;;;;;33.72;12.90;;;1.10;99.90;;;;;;5016184;28;20032;-72
2020/12/21 09:54:34;;;;;;;28.13;16.63;;;1.10;99.90;;;;;;5016040;28;20033;-72
2020/12/21 09:57:01;;;;;;;16.80;10.23;;;1.20;99.90;;;;;;5032836;28;20025;-72
2020/12/21 09:59:27;;;;;;;23.40;13.73;;;1.30;99.90;;;;;;5015978;28;20036;-72
2020/12/21 10:01:52;;;;;;;37.40;21.60;;;1.40;99.90;;;;;;5033544;28;20025;-72
2020/12/21 10:04:18;;;;;;;23.13;12.85;;;1.50;99.90;;;;;;5033594;28;20026;-69
2020/12/21 10:06:50;;;;;;;24.05;14.05;;;1.60;99.90;;;;;;5032703;28;20080;-69
2020/12/21 10:09:16;;;;;;;19.55;12.73;;;1.60;99.90;;;;;;5033518;28;20442;-70
2020/12/21 10:11:42;;;;;;;28.63;15.68;;;1.70;99.90;;;;;;5033345;28;20113;-70
2020/12/21 10:14:07;;;;;;;31.65;16.45;;;1.90;99.90;;;;;;5015567;28;20117;-68
2020/12/21 10:16:33;;;;;;;20.05;11.35;;;1.90;99.90;;;;;;5032388;28;20026;-69
2020/12/21 10:18:58;;;;;;;23.83;13.73;;;2.20;99.90;;;;;;5015405;28;20475;-69
2020/12/21 10:21:24;;;;;;;19.45;9.48;;;2.50;99.90;;;;;;5015362;28;20029;-70
2020/12/21 10:23:49;;;;;;;19.75;10.65;;;2.50;99.90;;;;;;5033182;28;20022;-69
2020/12/21 10:26:15;;;;;;;22.65;12.10;;;2.50;99.90;;;;;;5032828;28;20029;-69
2020/12/21 10:28:40;;;;;;;19.33;10.60;;;2.70;99.90;;;;;;5015497;28;20033;-70
2020/12/21 10:31:06;;;;;;;18.05;10.38;;;2.80;99.90;;;;;;5033059;28;20035;-70
2020/12/21 10:33:31;;;;;;;18.02;8.95;;;3.00;99.90;;;;;;5032952;28;20502;-70
2020/12/21 10:35:57;;;;;;;16.42;9.00;;;3.20;99.90;;;;;;5032680;28;20033;-68
2020/12/21 10:38:22;;;;;;;15.15;8.77;;;3.40;99.90;;;;;;5032435;28;20379;-70
2020/12/21 10:40:48;;;;;;;15.13;7.85;;;3.60;99.90;;;;;;5015087;28;20068;-70
2020/12/21 10:43:13;;;;;;;17.52;8.40;;;3.50;99.90;;;;;;5033057;28;20353;-70
2020/12/21 10:45:39;;;;;;;15.57;8.27;;;3.60;99.90;;;;;;5032099;28;20496;-70
2020/12/21 10:48:05;;;;;;;17.17;8.10;;;3.70;99.90;;;;;;5030877;28;20034;-69
2020/12/21 10:50:31;;;;;;;13.27;6.82;;;3.70;99.90;;;;;;5031637;28;20079;-70
2020/12/21 10:52:56;;;;;;;16.70;7.20;;;3.80;99.90;;;;;;5013804;28;20076;-69
2020/12/21 10:55:22;;;;;;;16.73;7.60;;;3.70;99.90;;;;;;5031922;28;20033;-70
2020/12/21 10:57:48;;;;;;;22.33;7.60;;;3.70;99.90;;;;;;5031938;28;20026;-70
2020/12/21 11:00:14;;;;;;;16.75;7.75;;;3.90;99.90;;;;;;5014855;28;20392;-70
2020/12/21 11:02:39;;;;;;;14.63;6.75;;;3.90;99.90;;;;;;5032540;28;20088;-71
2020/12/21 11:05:05;;;;;;;14.98;8.25;;;4.00;99.90;;;;;;5032454;28;20026;-70
2020/12/21 11:07:31;;;;;;;16.63;7.55;;;4.00;99.90;;;;;;5014117;28;20495;-69
2020/12/21 11:09:57;;;;;;;15.07;6.97;;;4.10;99.90;;;;;;5032288;28;20061;-70
2020/12/21 11:12:23;;;;;;;14.65;7.10;;;4.30;99.90;;;;;;5032357;28;20049;-68
2020/12/21 11:14:49;;;;;;;12.63;6.22;;;4.40;99.90;;;;;;5014570;28;20492;-68
2020/12/21 11:17:15;;;;;;;12.10;5.57;;;4.70;99.90;;;;;;5031575;28;20380;-70
2020/12/21 11:19:40;;;;;;;12.35;6.45;;;4.70;99.90;;;;;;5014498;28;20033;-69
2020/12/21 11:22:06;;;;;;;13.43;6.63;;;4.80;99.90;;;;;;5032324;28;20025;-70
2020/12/21 11:24:32;;;;;;;10.85;6.03;;;4.70;99.90;;;;;;5032338;28;20026;-71
2020/12/21 11:26:58;;;;;;;15.35;6.20;;;4.70;99.90;;;;;;5013948;28;20033;-70
2020/12/21 11:29:23;;;;;;;11.43;6.22;;;4.70;99.90;;;;;;5032289;28;20021;-70
2020/12/21 11:31:49;;;;;;;15.02;6.43;;;4.90;99.90;;;;;;5014281;28;20035;-70
2020/12/21 11:34:15;;;;;;;13.98;6.57;;;4.90;99.90;;;;;;5031917;28;20499;-71
2020/12/21 11:36:44;;;;;;;15.52;6.22;;;4.90;99.90;;;;;;5031170;28;20034;-70
2020/12/21 11:39:10;;;;;;;15.18;6.97;;;5.00;99.90;;;;;;5031729;28;20022;-70
2020/12/21 11:41:36;;;;;;;16.58;7.72;;;5.00;99.90;;;;;;5032050;28;20022;-70
2020/12/21 11:44:02;;;;;;;14.40;6.00;;;5.10;99.90;;;;;;5013943;28;20083;-70
2020/12/21 11:46:36;;;;;;;13.30;5.70;;;5.30;99.90;;;;;;5030608;28;20112;-70
2020/12/21 11:49:03;;;;;;;15.43;6.63;;;5.20;99.90;;;;;;5031088;28;20100;-70
2020/12/21 11:51:28;;;;;;;16.40;7.75;;;5.20;99.90;;;;;;5013002;28;20055;-71
2020/12/21 11:53:54;;;;;;;13.25;6.18;;;5.20;99.90;;;;;;5031477;28;20427;-71
2020/12/21 11:56:20;;;;;;;12.52;6.72;;;5.10;99.90;;;;;;5012946;28;20434;-71
2020/12/21 11:58:46;;;;;;;18.10;8.43;;;5.10;99.90;;;;;;5031436;28;20032;-69
2020/12/21 12:01:12;;;;;;;15.23;6.63;;;5.00;99.90;;;;;;5031398;28;20403;-71
2020/12/21 12:03:37;;;;;;;14.70;6.53;;;5.10;99.90;;;;;;5031128;28;20052;-70
2020/12/21 12:06:03;;;;;;;18.88;8.82;;;4.90;99.90;;;;;;5012957;28;20033;-71
2020/12/21 12:08:28;;;;;;;16.25;7.97;;;5.00;99.90;;;;;;5030724;28;20036;-71
2020/12/21 12:10:54;;;;;;;15.93;7.45;;;5.10;99.90;;;;;;5013493;28;20438;-70
2020/12/21 12:13:20;;;;;;;17.73;8.43;;;5.10;99.90;;;;;;5031097;28;20033;-71
2020/12/21 12:15:45;;;;;;;13.23;6.40;;;5.20;99.90;;;;;;5013345;28;20179;-72
2020/12/21 12:18:11;;;;;;;17.60;7.78;;;5.30;99.90;;;;;;5030356;28;20025;-73
2020/12/21 12:20:36;;;;;;;11.00;6.18;;;5.30;99.90;;;;;;5013356;28;20017;-71
2020/12/21 12:23:02;;;;;;;13.80;6.43;;;5.30;99.90;;;;;;5013261;28;20034;-73
2020/12/21 12:25:27;;;;;;;9.55;6.03;;;5.30;99.90;;;;;;5013266;28;20022;-73
2020/12/21 12:27:53;;;;;;;14.95;7.05;;;5.30;99.90;;;;;;5030306;28;20040;-72
2020/12/21 12:30:18;;;;;;;13.63;6.22;;;5.30;99.90;;;;;;5013459;28;20030;-72
2020/12/21 12:32:44;;;;;;;15.30;8.85;;;5.30;99.90;;;;;;5013181;28;20025;-70
2020/12/21 12:35:09;;;;;;;11.45;5.18;;;5.40;99.90;;;;;;5030735;28;20476;-71
2020/12/21 12:37:35;;;;;;;15.70;7.25;;;5.50;99.90;;;;;;5030321;28;20036;-71
2020/12/21 12:40:00;;;;;;;16.77;7.85;;;5.50;99.90;;;;;;5030800;28;20049;-71
2020/12/21 12:42:26;;;;;;;12.88;6.60;;;5.70;99.90;;;;;;5030735;28;20472;-71